Time;durP1;ratioP1;P1;durP2;ratioP2;P2;SDS_P1;SDS_P2;PMS_P1;PMS_P2;Temp;Humidity;BMP_temperature;BMP_pressure;BME280_temperature;BME280_humidity;BME280_pressure;Samples;Min_cycle;Max_cycle;Signal;HPM_P1;HPM_P2
2022/04/07 00:00:13;;;;;;;4.55;0.70;;;6.60;99.90;;;;;;4808290;29;20030;-93
2022/04/07 00:02:42;;;;;;;3.50;0.80;;;6.50;99.90;;;;;;4809106;29;20041;-93
2022/04/07 00:05:08;;;;;;;7.65;1.02;;;6.60;99.90;;;;;;4811315;29;20034;-92
2022/04/07 00:07:39;;;;;;;10.27;1.77;;;6.60;99.90;;;;;;4813988;29;20114;-92
2022/04/07 00:10:05;;;;;;;7.00;0.98;;;6.60;99.90;;;;;;4810785;29;20031;-94
2022/04/07 00:12:34;;;;;;;7.40;1.27;;;6.60;99.90;;;;;;4816110;29;20038;-92
2022/04/07 00:15:01;;;;;;;3.58;0.70;;;6.60;99.90;;;;;;4811917;29;20027;-92
2022/04/07 00:17:27;;;;;;;8.98;1.55;;;6.60;99.90;;;;;;4808613;29;20045;-93
2022/04/07 00:19:54;;;;;;;5.30;1.00;;;6.50;99.90;;;;;;4809273;29;20037;-92
2022/04/07 00:22:19;;;;;;;11.55;1.52;;;6.60;99.90;;;;;;4808280;29;20027;-93
2022/04/07 00:24:45;;;;;;;9.63;1.27;;;6.60;99.90;;;;;;4808909;29;20069;-94
2022/04/07 00:27:11;;;;;;;9.05;1.27;;;6.50;99.90;;;;;;4808649;29;20529;-93
2022/04/07 00:29:36;;;;;;;7.10;1.15;;;6.60;99.90;;;;;;4809798;29;20085;-93
2022/04/07 00:32:05;;;;;;;12.18;1.38;;;6.60;99.90;;;;;;4809480;29;20034;-94
2022/04/07 00:34:32;;;;;;;10.35;1.13;;;6.60;99.90;;;;;;4809548;29;20042;-94
2022/04/07 00:36:58;;;;;;;13.02;1.70;;;6.60;99.90;;;;;;4809289;29;20034;-92
2022/04/07 00:39:23;;;;;;;4.28;0.98;;;6.60;99.90;;;;;;4809450;29;20038;-91
2022/04/07 00:41:49;;;;;;;10.85;1.63;;;6.60;99.90;;;;;;4808728;29;20674;-92
2022/04/07 00:44:16;;;;;;;7.25;1.60;;;6.60;99.90;;;;;;4808611;29;20042;-93
2022/04/07 00:46:42;;;;;;;3.50;1.08;;;6.60;99.90;;;;;;4809144;29;20030;-94
2022/04/07 00:49:08;;;;;;;11.52;1.27;;;6.60;99.90;;;;;;4809731;29;20441;-92
2022/04/07 00:51:37;;;;;;;3.95;0.88;;;6.60;99.90;;;;;;4809620;29;20026;-92
2022/04/07 00:54:03;;;;;;;11.00;1.42;;;6.50;99.90;;;;;;4808875;29;20046;-92
2022/04/07 00:56:30;;;;;;;7.60;1.35;;;6.50;99.90;;;;;;4808914;29;20552;-93
2022/04/07 00:58:56;;;;;;;13.18;1.13;;;6.50;99.90;;;;;;4808848;29;20141;-91
2022/04/07 01:01:24;;;;;;;18.50;4.30;;;6.50;99.90;;;;;;4809759;29;20141;-92
2022/04/07 01:03:51;;;;;;;5.15;0.93;;;6.50;99.90;;;;;;4816767;29;20029;-93
2022/04/07 01:06:20;;;;;;;12.13;1.55;;;6.50;99.90;;;;;;4812050;29;20027;-92
2022/04/07 01:08:47;;;;;;;9.05;1.80;;;6.50;99.90;;;;;;4810407;29;20033;-93
2022/04/07 01:11:13;;;;;;;9.57;1.20;;;6.50;99.90;;;;;;4811028;29;20129;-93
2022/04/07 01:13:52;;;;;;;13.43;2.20;;;6.60;99.90;;;;;;4818587;29;20030;-93
2022/04/07 01:16:20;;;;;;;7.63;1.40;;;6.60;99.90;;;;;;4818418;29;20042;-93
2022/04/07 01:18:46;;;;;;;10.68;1.42;;;6.50;99.90;;;;;;4810621;29;20135;-93
2022/04/07 01:21:14;;;;;;;7.18;0.85;;;6.60;99.90;;;;;;4809139;29;20057;-92
2022/04/07 01:23:48;;;;;;;10.48;2.00;;;6.60;99.90;;;;;;4809293;29;20079;-93
2022/04/07 01:26:15;;;;;;;11.85;1.60;;;6.60;99.90;;;;;;4809489;29;20057;-92
2022/04/07 01:28:49;;;;;;;10.43;1.42;;;6.50;99.90;;;;;;4809716;29;20135;-92
2022/04/07 01:31:15;;;;;;;11.57;1.20;;;6.60;99.90;;;;;;4810007;29;20057;-93
2022/04/07 01:33:42;;;;;;;14.55;1.88;;;6.60;99.90;;;;;;4809190;29;20038;-92
2022/04/07 01:36:08;;;;;;;11.25;1.65;;;6.60;99.90;;;;;;4809279;29;20397;-93
2022/04/07 01:38:34;;;;;;;7.95;0.95;;;6.60;99.90;;;;;;4810329;29;20064;-93
2022/04/07 01:41:00;;;;;;;10.57;2.67;;;6.60;99.90;;;;;;4809759;29;20102;-93
2022/04/07 01:43:27;;;;;;;5.00;1.02;;;6.60;99.90;;;;;;4811805;29;20514;-93
2022/04/07 01:45:54;;;;;;;7.93;1.05;;;6.50;99.90;;;;;;4810210;29;20030;-93
2022/04/07 01:48:20;;;;;;;6.93;2.10;;;6.50;99.90;;;;;;4810532;29;20063;-93
2022/04/07 01:50:50;;;;;;;19.17;1.58;;;6.50;99.90;;;;;;4816427;29;20030;-92
2022/04/07 01:53:16;;;;;;;7.20;1.55;;;6.50;99.90;;;;;;4819969;29;20046;-94
2022/04/07 01:55:42;;;;;;;11.45;1.35;;;6.50;99.90;;;;;;4816761;29;20034;-92
2022/04/07 01:58:09;;;;;;;9.18;1.30;;;6.40;99.90;;;;;;4809467;29;20080;-93
2022/04/07 02:00:35;;;;;;;14.30;2.45;;;6.40;99.90;;;;;;4809682;29;20030;-91
2022/04/07 02:03:05;;;;;;;8.65;2.15;;;6.30;99.90;;;;;;4808826;29;20037;-94
2022/04/07 02:05:31;;;;;;;9.45;1.02;;;6.30;99.90;;;;;;4809267;29;20058;-93
2022/04/07 02:07:56;;;;;;;11.07;1.20;;;6.30;99.90;;;;;;4809365;29;20081;-93
2022/04/07 02:10:23;;;;;;;17.17;1.20;;;6.20;99.90;;;;;;4810255;29;20030;-93
2022/04/07 02:12:49;;;;;;;7.38;2.03;;;6.30;99.90;;;;;;4810942;29;20390;-93
2022/04/07 02:15:15;;;;;;;8.15;1.92;;;6.30;99.90;;;;;;4809147;29;20026;-92
2022/04/07 02:17:41;;;;;;;4.72;0.75;;;6.30;99.90;;;;;;4809075;29;20098;-94
2022/04/07 02:20:09;;;;;;;6.60;1.33;;;6.30;99.90;;;;;;4809980;29;20401;-92
2022/04/07 02:22:34;;;;;;;8.32;1.80;;;6.20;99.90;;;;;;4808827;29;20091;-94
2022/04/07 02:25:00;;;;;;;11.70;1.77;;;6.20;99.90;;;;;;4809723;29;20034;-93
2022/04/07 02:27:36;;;;;;;12.05;2.08;;;6.20;99.90;;;;;;4807750;29;20038;-93
2022/04/07 02:30:04;;;;;;;15.18;1.55;;;6.20;99.90;;;;;;4809045;29;20560;-93
2022/04/07 02:32:30;;;;;;;6.10;1.20;;;6.20;99.90;;;;;;4809542;29;20062;-94
2022/04/07 02:34:56;;;;;;;8.10;1.85;;;6.20;99.90;;;;;;4808830;29;20045;-93
2022/04/07 02:37:22;;;;;;;3.55;0.95;;;6.20;99.90;;;;;;4808841;29;20031;-93
2022/04/07 02:39:48;;;;;;;10.10;1.67;;;6.20;99.90;;;;;;4809541;29;20496;-95
2022/04/07 02:42:14;;;;;;;7.25;1.42;;;6.20;99.90;;;;;;4810183;29;20034;-94
2022/04/07 02:44:39;;;;;;;8.77;1.73;;;6.20;99.90;;;;;;4809727;29;20077;-93
2022/04/07 02:47:05;;;;;;;8.57;1.52;;;6.20;99.90;;;;;;4811312;29;20045;-94
2022/04/07 02:49:31;;;;;;;6.68;1.10;;;6.20;99.90;;;;;;4810763;29;20030;-95
2022/04/07 02:51:56;;;;;;;11.85;1.60;;;6.30;99.90;;;;;;4808274;29;20129;-93
2022/04/07 02:54:22;;;;;;;2.53;0.90;;;6.20;99.90;;;;;;4808009;29;20042;-92
2022/04/07 02:56:48;;;;;;;2.47;0.75;;;6.20;99.90;;;;;;4808873;29;20138;-92
2022/04/07 02:59:13;;;;;;;6.72;1.52;;;6.20;99.90;;;;;;4808918;29;20101;-93
2022/04/07 03:01:39;;;;;;;8.13;0.90;;;6.20;99.90;;;;;;4809453;29;20098;-93
2022/04/07 03:04:05;;;;;;;8.25;1.50;;;6.20;99.90;;;;;;4808984;29;20374;-93
2022/04/07 03:06:31;;;;;;;9.55;1.50;;;6.20;99.90;;;;;;4808428;29;20045;-93
2022/04/07 03:08:56;;;;;;;12.13;1.70;;;6.20;99.90;;;;;;4809618;29;20505;-92
2022/04/07 03:11:22;;;;;;;7.95;1.15;;;6.20;99.90;;;;;;4809074;29;20034;-93
2022/04/07 03:13:48;;;;;;;5.65;1.33;;;6.20;99.90;;;;;;4809498;29;20103;-95
2022/04/07 03:16:13;;;;;;;16.60;2.33;;;6.10;99.90;;;;;;4809378;29;20066;-92
2022/04/07 03:18:39;;;;;;;7.25;1.20;;;6.10;99.90;;;;;;4810935;29;20042;-93
2022/04/07 03:21:05;;;;;;;4.93;1.15;;;6.10;99.90;;;;;;4816986;29;20117;-93
2022/04/07 03:23:31;;;;;;;11.80;1.30;;;6.10;99.90;;;;;;4808787;29;20077;-93
2022/04/07 03:25:56;;;;;;;6.85;1.00;;;6.10;99.90;;;;;;4809257;29;20031;-94
2022/04/07 03:28:22;;;;;;;10.90;1.67;;;6.10;99.90;;;;;;4807932;29;20129;-92
2022/04/07 03:30:48;;;;;;;9.15;1.13;;;6.10;99.90;;;;;;4807606;29;20477;-93
2022/04/07 03:33:14;;;;;;;7.50;1.17;;;6.10;99.90;;;;;;4807977;29;20062;-92
2022/04/07 03:35:40;;;;;;;8.90;1.33;;;6.00;99.90;;;;;;4810339;29;20030;-92
2022/04/07 03:38:06;;;;;;;9.85;1.08;;;6.00;99.90;;;;;;4817312;29;20110;-94
2022/04/07 03:40:34;;;;;;;13.15;1.33;;;5.90;99.90;;;;;;4816785;29;20034;-94
2022/04/07 03:43:00;;;;;;;2.83;1.00;;;5.90;99.90;;;;;;4812197;29;20086;-95
2022/04/07 03:45:26;;;;;;;8.85;1.13;;;5.90;99.90;;;;;;4812452;29;20031;-95
2022/04/07 03:47:52;;;;;;;11.57;1.58;;;5.80;99.90;;;;;;4812629;29;20043;-95
2022/04/07 03:50:18;;;;;;;9.70;1.45;;;5.80;99.90;;;;;;4813004;29;20038;-94
2022/04/07 03:52:43;;;;;;;3.78;1.00;;;5.70;99.90;;;;;;4812700;29;20488;-95
2022/04/07 03:55:09;;;;;;;7.85;1.35;;;5.70;99.90;;;;;;4811869;29;20523;-96
2022/04/07 03:57:35;;;;;;;12.52;1.30;;;5.60;99.90;;;;;;4811992;29;20031;-95
2022/04/07 04:00:01;;;;;;;6.47;1.55;;;5.50;99.90;;;;;;4811693;29;20416;-94
2022/04/07 04:02:29;;;;;;;4.25;1.00;;;5.50;99.90;;;;;;4811926;29;20031;-95
2022/04/07 04:04:54;;;;;;;6.63;1.08;;;5.40;99.90;;;;;;4811246;29;20034;-94
2022/04/07 04:07:20;;;;;;;10.48;1.55;;;5.40;99.90;;;;;;4811083;29;20446;-95
2022/04/07 04:09:47;;;;;;;8.43;2.05;;;5.40;99.90;;;;;;4811883;29;20037;-94
2022/04/07 04:12:13;;;;;;;6.78;1.50;;;5.40;99.90;;;;;;4811379;29;20065;-95
2022/04/07 04:14:38;;;;;;;13.23;1.65;;;5.40;99.90;;;;;;4813279;29;20035;-92
2022/04/07 04:17:04;;;;;;;7.10;1.55;;;5.40;99.90;;;;;;4812247;29;20038;-94
2022/04/07 04:19:39;;;;;;;10.00;1.33;;;5.40;99.90;;;;;;4812528;29;20034;-96
2022/04/07 04:22:04;;;;;;;12.52;1.73;;;5.40;99.90;;;;;;4815789;29;20065;-95
2022/04/07 04:24:30;;;;;;;6.43;1.10;;;5.40;99.90;;;;;;4812612;29;20035;-94
2022/04/07 04:26:56;;;;;;;10.38;1.40;;;5.40;99.90;;;;;;4814773;29;20042;-92
2022/04/07 04:29:21;;;;;;;7.25;1.73;;;5.30;99.90;;;;;;4820125;29;20058;-95
2022/04/07 04:31:47;;;;;;;6.05;0.75;;;5.30;99.90;;;;;;4822506;29;20038;-95
2022/04/07 04:34:15;;;;;;;6.78;0.98;;;5.30;99.90;;;;;;4815013;29;20060;-94
2022/04/07 04:36:41;;;;;;;4.35;0.93;;;5.20;99.90;;;;;;4817726;29;20054;-93
2022/04/07 04:39:07;;;;;;;4.97;0.98;;;5.20;99.90;;;;;;4821990;29;20034;-96
2022/04/07 04:41:38;;;;;;;6.68;1.85;;;5.10;99.90;;;;;;4822015;29;20034;-95
2022/04/07 04:44:03;;;;;;;;;;;5.10;99.90;;;;;;4822230;29;20038;-95
2022/04/07 04:46:29;;;;;;;5.78;1.40;;;5.00;99.90;;;;;;4822754;29;19915;-93
2022/04/07 04:48:55;;;;;;;4.57;0.90;;;5.00;99.90;;;;;;4820194;29;20035;-93
2022/04/07 04:51:20;;;;;;;3.65;0.90;;;4.90;99.90;;;;;;4822403;29;20050;-93
2022/04/07 04:53:46;;;;;;;3.67;0.68;;;4.90;99.90;;;;;;4824352;29;20046;-94
2022/04/07 04:56:12;;;;;;;9.60;1.27;;;4.90;99.90;;;;;;4812343;29;20049;-94
2022/04/07 04:58:38;;;;;;;5.18;0.82;;;4.90;99.90;;;;;;4820589;29;20023;-94
2022/04/07 05:01:03;;;;;;;2.63;0.82;;;4.90;99.90;;;;;;4812463;29;20148;-94
2022/04/07 05:03:29;;;;;;;5.43;2.20;;;4.90;99.90;;;;;;4813636;29;20023;-93
2022/04/07 05:05:55;;;;;;;12.15;2.30;;;4.90;99.90;;;;;;4811007;29;20519;-93
2022/04/07 05:08:21;;;;;;;7.93;2.20;;;4.90;99.90;;;;;;4810708;29;20034;-94
2022/04/07 05:10:47;;;;;;;7.72;2.90;;;4.90;99.90;;;;;;4810606;29;20030;-94
2022/04/07 05:13:12;;;;;;;4.88;1.02;;;4.90;99.90;;;;;;4811647;29;20050;-94
2022/04/07 05:15:39;;;;;;;3.22;1.10;;;5.00;99.90;;;;;;4811034;29;20027;-94
2022/04/07 05:18:05;;;;;;;5.68;1.00;;;5.00;99.90;;;;;;4812147;29;20118;-94
2022/04/07 05:20:32;;;;;;;2.17;0.70;;;5.00;99.90;;;;;;4815151;29;20027;-94
2022/04/07 05:22:58;;;;;;;2.13;0.88;;;5.00;99.90;;;;;;4819829;29;20036;-93
2022/04/07 05:25:24;;;;;;;2.03;0.90;;;4.90;99.90;;;;;;4814245;29;20496;-96
2022/04/07 05:27:49;;;;;;;2.40;1.23;;;4.80;99.90;;;;;;4809948;29;20062;-94
2022/04/07 05:30:15;;;;;;;5.47;1.75;;;4.80;99.90;;;;;;4809317;29;20033;-93
2022/04/07 05:32:43;;;;;;;8.10;2.17;;;4.80;99.90;;;;;;4809614;29;20550;-95
2022/04/07 05:35:09;;;;;;;9.85;2.10;;;4.70;99.90;;;;;;4810609;29;20046;-94
2022/04/07 05:37:35;;;;;;;7.47;1.90;;;4.70;99.90;;;;;;4810268;29;20027;-94
2022/04/07 05:40:01;;;;;;;12.48;2.97;;;4.80;99.90;;;;;;4810484;29;20069;-95
2022/04/07 05:42:27;;;;;;;12.18;3.17;;;4.90;99.90;;;;;;4810310;29;20058;-94
2022/04/07 05:44:53;;;;;;;12.18;2.30;;;4.90;99.90;;;;;;4814642;29;20040;-94
2022/04/07 05:47:18;;;;;;;12.18;3.35;;;5.00;99.90;;;;;;4811696;29;20493;-95
2022/04/07 05:49:44;;;;;;;9.45;2.28;;;5.00;99.90;;;;;;4809799;29;20168;-94
2022/04/07 05:52:10;;;;;;;7.72;2.15;;;5.10;99.90;;;;;;4809436;29;20485;-95
2022/04/07 05:54:36;;;;;;;8.38;2.45;;;5.10;99.90;;;;;;4809787;29;20039;-92
2022/04/07 05:57:02;;;;;;;11.65;2.03;;;5.10;99.90;;;;;;4809759;29;20034;-95
2022/04/07 05:59:28;;;;;;;7.78;1.88;;;5.20;99.90;;;;;;4812933;29;20045;-96
2022/04/07 06:02:00;;;;;;;8.02;2.20;;;5.20;99.90;;;;;;4816768;29;20034;-96
2022/04/07 06:04:25;;;;;;;16.17;2.90;;;5.20;99.90;;;;;;4821439;29;20065;-96
2022/04/07 06:06:55;;;;;;;3.25;1.60;;;5.20;99.90;;;;;;4818646;29;20026;-96
2022/04/07 06:09:22;;;;;;;6.82;1.55;;;5.30;99.90;;;;;;4815516;29;20049;-96
2022/04/07 06:11:50;;;;;;;5.40;1.00;;;5.20;99.90;;;;;;4816866;29;20094;-95
2022/04/07 06:14:18;;;;;;;7.30;2.50;;;5.20;99.90;;;;;;4814432;29;20073;-96
2022/04/07 06:17:01;;;;;;;7.80;1.98;;;5.20;99.90;;;;;;4819211;29;20073;-96
2022/04/07 06:19:38;;;;;;;2.17;1.60;;;5.20;99.90;;;;;;4819475;29;20048;-96
2022/04/07 06:22:07;;;;;;;11.40;1.83;;;5.20;99.90;;;;;;4818602;29;20520;-96
2022/04/07 06:24:34;;;;;;;8.75;2.00;;;5.20;99.90;;;;;;4821498;29;20030;-95
2022/04/07 06:27:03;;;;;;;1.55;0.80;;;5.10;99.90;;;;;;4817980;29;20034;-95
2022/04/07 06:29:29;;;;;;;3.47;0.82;;;5.10;99.90;;;;;;4842100;29;20046;-94
2022/04/07 06:31:58;;;;;;;4.95;0.90;;;5.00;99.90;;;;;;4815258;29;20034;-96
2022/04/07 06:34:24;;;;;;;4.95;1.02;;;4.90;99.90;;;;;;4818559;29;20069;-95
2022/04/07 06:36:50;;;;;;;5.72;0.82;;;4.80;99.90;;;;;;4819183;29;20038;-95
2022/04/07 06:39:31;;;;;;;6.03;1.10;;;4.80;99.90;;;;;;4820720;29;20102;-95
2022/04/07 06:42:03;;;;;;;9.35;1.25;;;4.80;99.90;;;;;;4824594;29;20072;-95
2022/04/07 06:44:30;;;;;;;4.20;1.05;;;4.80;99.90;;;;;;4825938;29;20030;-95
2022/04/07 06:46:56;;;;;;;2.95;1.58;;;4.90;99.90;;;;;;4823546;29;20026;-95
2022/04/07 06:49:23;;;;;;;4.18;0.82;;;4.90;99.90;;;;;;4815313;29;20442;-95
2022/04/07 06:51:48;;;;;;;9.40;1.23;;;5.00;99.90;;;;;;4817833;29;20048;-94
2022/04/07 06:54:15;;;;;;;6.35;1.27;;;5.00;99.90;;;;;;4822724;29;20035;-96
2022/04/07 06:56:41;;;;;;;4.82;0.98;;;5.10;99.90;;;;;;4807735;29;20042;-95
2022/04/07 06:59:07;;;;;;;7.00;1.83;;;5.10;99.90;;;;;;4819199;29;20049;-92
2022/04/07 07:01:34;;;;;;;7.50;1.10;;;5.20;99.90;;;;;;4820547;29;20397;-95
2022/04/07 07:04:00;;;;;;;7.57;2.22;;;5.20;99.90;;;;;;4819395;29;20086;-94
2022/04/07 07:06:26;;;;;;;12.18;1.85;;;5.20;99.90;;;;;;4811498;29;20032;-94
2022/04/07 07:08:52;;;;;;;6.38;1.10;;;5.30;99.90;;;;;;4811622;29;20034;-96
2022/04/07 07:11:18;;;;;;;5.40;1.80;;;5.40;99.90;;;;;;4810493;29;20488;-94
2022/04/07 07:13:44;;;;;;;3.88;1.05;;;5.40;99.90;;;;;;4814662;29;20046;-93
2022/04/07 07:16:10;;;;;;;11.38;1.45;;;5.50;99.90;;;;;;4809971;29;20033;-94
2022/04/07 07:18:38;;;;;;;5.57;0.93;;;5.50;99.90;;;;;;4811303;29;20026;-94
2022/04/07 07:21:04;;;;;;;6.07;1.23;;;5.60;99.90;;;;;;4813742;29;20053;-94
2022/04/07 07:23:32;;;;;;;9.55;1.42;;;5.60;99.90;;;;;;4813778;29;20409;-95
2022/04/07 07:25:58;;;;;;;12.65;2.00;;;5.70;99.90;;;;;;4814868;29;20542;-95
2022/04/07 07:28:23;;;;;;;5.63;1.40;;;5.70;99.90;;;;;;4828683;29;20038;-93
2022/04/07 07:30:49;;;;;;;8.77;1.05;;;5.80;99.90;;;;;;4827430;29;20019;-94
2022/04/07 07:33:15;;;;;;;10.73;1.13;;;5.80;99.90;;;;;;4817288;29;20489;-95
2022/04/07 07:35:43;;;;;;;9.85;1.33;;;5.80;99.90;;;;;;4812943;29;20052;-94
2022/04/07 07:38:09;;;;;;;13.10;1.38;;;5.80;99.90;;;;;;4821188;29;20095;-94
2022/04/07 07:40:35;;;;;;;8.93;1.10;;;5.80;99.90;;;;;;4819327;29;20126;-96
2022/04/07 07:43:02;;;;;;;8.98;1.40;;;5.80;99.90;;;;;;4821924;29;20019;-95
2022/04/07 07:45:34;;;;;;;13.25;1.10;;;5.90;99.90;;;;;;4829196;29;20120;-95
2022/04/07 07:48:03;;;;;;;8.20;1.17;;;5.90;99.90;;;;;;4829580;29;20086;-94
2022/04/07 07:50:29;;;;;;;3.97;1.67;;;5.90;99.90;;;;;;4839446;29;20030;-96
2022/04/07 07:52:56;;;;;;;3.92;0.75;;;5.90;99.90;;;;;;4837853;29;20030;-95
2022/04/07 07:55:22;;;;;;;4.03;1.08;;;5.90;99.90;;;;;;4838371;29;20064;-95
2022/04/07 07:57:47;;;;;;;7.43;1.30;;;5.90;99.90;;;;;;4835075;29;20033;-95
2022/04/07 08:00:16;;;;;;;6.35;0.98;;;5.90;99.90;;;;;;4836898;29;20030;-96
2022/04/07 08:02:43;;;;;;;7.03;1.20;;;6.00;99.90;;;;;;4838171;29;20030;-94
2022/04/07 08:05:09;;;;;;;1.83;0.55;;;6.00;99.90;;;;;;4832484;29;20060;-94
2022/04/07 08:07:40;;;;;;;4.97;0.60;;;6.00;99.90;;;;;;4838720;29;20034;-94
2022/04/07 08:10:07;;;;;;;6.03;1.33;;;6.10;99.90;;;;;;4811214;29;20832;-96
2022/04/07 08:12:32;;;;;;;4.93;0.90;;;6.10;99.90;;;;;;4818211;29;20095;-96
2022/04/07 08:15:13;;;;;;;;;;;;;;;;;;;;;
2022/04/07 08:17:39;;;;;;;5.60;1.30;;;6.20;99.90;;;;;;4807197;29;20109;-96
2022/04/07 08:20:07;;;;;;;2.50;0.85;;;6.20;99.90;;;;;;4817169;29;20041;-95
2022/04/07 08:22:33;;;;;;;4.93;1.30;;;6.20;99.90;;;;;;4817352;29;20034;-96
2022/04/07 08:24:59;;;;;;;4.70;0.95;;;6.20;99.90;;;;;;4812378;29;20062;-95
2022/04/07 08:27:29;;;;;;;7.03;1.02;;;6.30;99.90;;;;;;4813791;29;20034;-93
2022/04/07 08:29:55;;;;;;;4.03;1.20;;;6.40;99.90;;;;;;4821893;29;20409;-96
2022/04/07 08:32:22;;;;;;;3.90;0.80;;;6.40;99.90;;;;;;4822711;29;20105;-96
2022/04/07 08:34:52;;;;;;;8.65;1.15;;;6.30;99.90;;;;;;4824505;29;20038;-95
2022/04/07 08:37:21;;;;;;;5.75;0.80;;;6.20;99.90;;;;;;4822221;29;20018;-95
2022/04/07 08:39:49;;;;;;;8.70;1.15;;;6.10;99.90;;;;;;4828348;29;20103;-95
2022/04/07 08:42:29;;;;;;;2.08;0.70;;;5.90;99.90;;;;;;4845356;29;20121;-95
2022/04/07 08:44:55;;;;;;;1.65;0.55;;;5.80;99.90;;;;;;4817405;29;20034;-95
2022/04/07 08:47:33;;;;;;;0.63;0.30;;;5.70;99.90;;;;;;4830482;29;20129;-95
2022/04/07 08:50:02;;;;;;;2.17;0.28;;;5.60;99.90;;;;;;4930346;24;20113;-95
2022/04/07 08:52:36;;;;;;;2.30;0.25;;;5.50;99.90;;;;;;4968737;24;20053;-96
2022/04/07 11:05:24;;;;;;;4.95;1.02;;;9.70;99.90;;;;;;6227585;22;1645219;-95
2022/04/07 11:07:51;;;;;;;5.00;1.00;;;9.80;99.90;;;;;;6228259;23;20012;-95
2022/04/07 11:10:37;;;;;;;10.40;1.42;;;9.60;99.90;;;;;;6230088;23;20034;-93
2022/04/07 11:13:03;;;;;;;9.93;1.83;;;9.40;99.90;;;;;;6234432;23;20004;-93
2022/04/07 11:15:36;;;;;;;6.47;0.98;;;9.40;99.90;;;;;;6238460;23;20064;-92
2022/04/07 11:18:14;;;;;;;4.38;0.82;;;9.40;99.90;;;;;;6247246;23;20021;-92
2022/04/07 11:21:02;;;;;;;5.50;1.08;;;9.20;99.90;;;;;;6246669;23;20020;-93
2022/04/07 11:23:44;;;;;;;0.95;0.73;;;8.70;99.90;;;;;;6236524;23;20035;-93
2022/04/07 11:26:20;;;;;;;4.45;1.15;;;8.40;99.90;;;;;;6242332;23;20016;-95
2022/04/07 11:29:07;;;;;;;5.25;0.93;;;8.10;99.90;;;;;;6244440;23;20043;-93
2022/04/07 11:31:50;;;;;;;3.22;0.82;;;8.20;99.90;;;;;;6234173;23;20059;-93
2022/04/07 11:35:01;;;;;;;1.75;0.65;;;8.50;99.90;;;;;;6228970;23;20005;-92
2022/04/07 11:37:27;;;;;;;2.85;0.63;;;8.80;99.90;;;;;;6193117;23;20123;-93
2022/04/07 11:39:53;;;;;;;2.35;0.77;;;9.10;99.90;;;;;;6237505;23;20466;-93
2022/04/07 11:42:21;;;;;;;4.72;1.10;;;9.20;99.90;;;;;;6226554;23;20036;-95
2022/04/07 11:44:55;;;;;;;3.38;0.88;;;9.30;99.90;;;;;;6229209;23;20017;-95
2022/04/07 11:47:37;;;;;;;2.38;0.80;;;9.30;99.90;;;;;;6233292;23;20015;-93
2022/04/07 11:50:07;;;;;;;5.45;0.73;;;8.90;99.90;;;;;;6215168;23;19997;-94
2022/04/07 11:52:54;;;;;;;5.00;1.10;;;8.70;99.90;;;;;;6238852;23;20008;-96
2022/04/07 11:55:38;;;;;;;9.05;2.00;;;8.80;99.90;;;;;;6244560;23;20012;-96
2022/04/07 12:24:38;;;;;;;6.43;1.00;;;9.90;99.90;;;;;;6265725;22;20030;-95
2022/04/07 12:27:11;;;;;;;2.95;0.90;;;10.10;99.90;;;;;;6265792;22;20007;-94
2022/04/07 12:29:49;;;;;;;2.28;0.30;;;10.20;99.90;;;;;;6275640;22;20015;-94
2022/04/07 12:32:26;;;;;;;0.55;0.40;;;10.00;99.90;;;;;;6302239;22;20003;-95
2022/04/07 12:35:51;;;;;;;3.80;0.47;;;9.50;99.90;;;;;;6303658;22;19999;-95
2022/04/07 12:39:17;;;;;;;3.92;0.95;;;8.70;99.90;;;;;;6304547;22;20030;-96
2022/04/07 12:42:30;;;;;;;3.42;0.50;;;8.20;99.90;;;;;;6211072;22;19992;-96
2022/04/07 12:45:12;;;;;;;2.65;0.50;;;8.00;99.90;;;;;;6244056;22;20069;-92
2022/04/07 12:48:00;;;;;;;1.58;0.20;;;7.90;99.90;;;;;;6264102;22;20014;-94
2022/04/07 12:50:27;;;;;;;4.38;0.60;;;7.80;99.90;;;;;;6268654;22;20013;-94
2022/04/07 12:52:53;;;;;;;6.13;0.77;;;7.80;99.90;;;;;;6265606;22;20033;-95
2022/04/07 12:55:19;;;;;;;5.57;0.70;;;7.70;99.90;;;;;;6258532;22;20029;-95
2022/04/07 12:57:46;;;;;;;4.47;0.90;;;7.70;99.90;;;;;;6256803;22;20003;-95
2022/04/07 13:00:18;;;;;;;3.03;0.47;;;7.80;99.90;;;;;;6255604;22;20025;-93
2022/04/07 13:02:52;;;;;;;4.22;0.60;;;7.80;99.90;;;;;;6247683;22;20015;-92
2022/04/07 13:05:27;;;;;;;1.48;0.47;;;7.90;99.90;;;;;;6250149;22;20012;-96
2022/04/07 13:07:54;;;;;;;2.13;0.40;;;8.20;99.90;;;;;;6256415;22;20081;-94
2022/04/07 13:10:21;;;;;;;3.55;0.73;;;8.70;99.90;;;;;;6277846;22;20004;-93
2022/04/07 13:12:47;;;;;;;5.25;0.65;;;8.90;99.90;;;;;;6249319;22;20030;-93
2022/04/07 13:15:13;;;;;;;3.47;0.65;;;9.10;99.90;;;;;;6248656;22;20419;-93
2022/04/07 13:17:39;;;;;;;3.92;0.50;;;9.10;99.90;;;;;;6249081;22;20003;-94
2022/04/07 13:20:06;;;;;;;3.55;0.80;;;9.20;99.90;;;;;;6250898;22;20007;-95
2022/04/07 13:22:33;;;;;;;1.90;0.40;;;9.40;99.90;;;;;;6253130;22;20003;-92
2022/04/07 13:25:01;;;;;;;2.42;0.55;;;9.70;99.90;;;;;;6252767;22;20023;-93
2022/04/07 13:27:27;;;;;;;3.10;0.52;;;10.10;99.90;;;;;;6252632;22;20503;-93
2022/04/07 13:29:53;;;;;;;3.22;0.63;;;10.30;99.90;;;;;;6252523;22;20004;-94
2022/04/07 13:32:22;;;;;;;3.50;0.52;;;10.50;99.90;;;;;;6251042;22;20027;-94
2022/04/07 13:34:49;;;;;;;1.17;0.32;;;10.50;99.90;;;;;;6254353;22;20459;-95
2022/04/07 13:37:15;;;;;;;4.82;0.70;;;10.40;99.90;;;;;;6252099;22;20014;-94
2022/04/07 13:39:41;;;;;;;2.40;0.45;;;10.30;99.90;;;;;;6252735;22;20000;-94
2022/04/07 13:42:07;;;;;;;3.80;0.50;;;10.40;99.90;;;;;;6226262;22;20012;-93
2022/04/07 13:44:36;;;;;;;0.82;0.30;;;10.40;99.90;;;;;;6252419;22;20071;-93
2022/04/07 13:47:02;;;;;;;6.00;1.05;;;10.40;99.90;;;;;;6255090;22;20000;-95
2022/04/07 13:49:28;;;;;;;4.55;0.60;;;10.30;99.90;;;;;;6255189;22;20031;-94
2022/04/07 13:51:55;;;;;;;0.63;0.40;;;10.10;99.90;;;;;;6253509;22;20000;-94
2022/04/07 13:54:22;;;;;;;1.20;0.45;;;10.00;99.90;;;;;;6253753;22;20015;-93
2022/04/07 13:56:48;;;;;;;1.50;0.50;;;9.80;99.90;;;;;;6261432;22;20004;-94
2022/04/07 13:59:14;;;;;;;3.22;0.52;;;9.60;99.90;;;;;;6256881;22;20012;-94
2022/04/07 14:01:40;;;;;;;2.33;0.60;;;9.30;99.90;;;;;;6252519;22;20079;-93
2022/04/07 14:04:05;;;;;;;3.30;0.50;;;9.10;99.90;;;;;;6251763;22;20019;-96
2022/04/07 14:06:31;;;;;;;2.38;0.50;;;9.00;99.90;;;;;;6253227;22;20003;-93
2022/04/07 14:08:57;;;;;;;2.42;0.52;;;8.80;99.90;;;;;;6227256;22;20460;-95
2022/04/07 14:11:23;;;;;;;2.88;0.65;;;8.60;99.90;;;;;;6279828;22;20007;-94
2022/04/07 14:13:51;;;;;;;0.35;0.30;;;8.50;99.90;;;;;;6251534;22;20087;-93
2022/04/07 14:16:17;;;;;;;4.00;0.52;;;8.30;99.90;;;;;;6280298;22;20018;-94
2022/04/07 14:18:46;;;;;;;1.58;0.60;;;8.20;99.90;;;;;;6281596;22;20455;-94
2022/04/07 14:21:13;;;;;;;0.63;0.40;;;8.10;99.90;;;;;;6254711;22;20007;-95
2022/04/07 14:23:39;;;;;;;0.38;0.20;;;7.90;99.90;;;;;;6255609;22;20069;-94
2022/04/07 14:26:05;;;;;;;0.95;0.20;;;7.70;99.90;;;;;;6233785;22;20016;-93
2022/04/07 14:28:31;;;;;;;0.75;0.10;;;7.50;99.90;;;;;;6260763;22;20030;-93
2022/04/07 14:30:58;;;;;;;0.32;0.22;;;7.40;99.90;;;;;;6257562;22;20204;-95
2022/04/07 14:33:23;;;;;;;0.73;0.30;;;7.20;99.90;;;;;;6257110;22;20011;-94
2022/04/07 14:35:50;;;;;;;0.20;0.20;;;7.20;99.90;;;;;;6257197;22;20008;-94
2022/04/07 14:38:18;;;;;;;0.20;0.20;;;7.20;99.90;;;;;;6266427;22;20015;-95
2022/04/07 14:40:45;;;;;;;0.55;0.20;;;7.20;99.90;;;;;;6262935;22;20004;-94
2022/04/07 14:43:12;;;;;;;0.50;0.40;;;7.10;99.90;;;;;;6260893;22;20007;-94
2022/04/07 14:45:38;;;;;;;0.70;0.30;;;7.20;99.90;;;;;;6260545;22;20443;-95
2022/04/07 14:48:08;;;;;;;0.35;0.30;;;7.10;99.90;;;;;;6262882;22;19992;-94
2022/04/07 14:50:35;;;;;;;1.65;0.38;;;7.10;99.90;;;;;;6232125;23;20000;-94
2022/04/07 14:53:02;;;;;;;0.90;0.30;;;7.00;99.90;;;;;;6234325;23;20103;-94
2022/04/07 14:55:29;;;;;;;0.30;0.20;;;7.00;99.90;;;;;;6243538;23;19992;-94
2022/04/07 14:57:55;;;;;;;1.67;0.38;;;6.90;99.90;;;;;;6244862;23;20011;-93
2022/04/07 15:00:21;;;;;;;0.40;0.40;;;6.80;99.90;;;;;;6241189;23;20027;-93
2022/04/07 15:02:48;;;;;;;0.32;0.32;;;6.80;99.90;;;;;;6245273;23;20027;-94
2022/04/07 15:05:14;;;;;;;0.40;0.17;;;6.80;99.90;;;;;;6238458;23;20013;-93
2022/04/07 15:07:45;;;;;;;0.60;0.40;;;6.70;99.90;;;;;;6236131;23;20095;-93
2022/04/07 15:10:11;;;;;;;;;;;6.70;99.90;;;;;;6238921;23;20008;-93
2022/04/07 15:12:40;;;;;;;1.00;0.32;;;6.70;99.90;;;;;;6238575;23;19903;-92
2022/04/07 15:15:06;;;;;;;0.30;0.30;;;6.70;99.90;;;;;;6236811;23;20008;-93
2022/04/07 15:17:35;;;;;;;1.15;0.68;;;6.70;99.90;;;;;;6237847;23;19985;-94
2022/04/07 15:20:02;;;;;;;0.73;0.40;;;6.70;99.90;;;;;;6242412;23;20008;-93
2022/04/07 15:22:29;;;;;;;1.00;0.45;;;6.70;99.90;;;;;;6240677;23;20087;-94
2022/04/07 15:24:58;;;;;;;0.73;0.30;;;6.60;99.90;;;;;;6241589;23;20016;-94
2022/04/07 15:27:24;;;;;;;0.40;0.32;;;6.60;99.90;;;;;;6239864;23;20000;-94
2022/04/07 15:29:51;;;;;;;2.38;0.55;;;6.50;99.90;;;;;;6242976;23;20083;-94
2022/04/07 15:32:19;;;;;;;0.30;0.30;;;6.50;99.90;;;;;;6262370;23;20015;-93
2022/04/07 15:34:49;;;;;;;1.65;0.50;;;6.40;99.90;;;;;;6236903;23;20000;-94
2022/04/07 15:37:15;;;;;;;0.73;0.52;;;6.50;99.90;;;;;;6238927;23;20008;-94